sensor_id;sensor_type;location;lat;lon;timestamp;P1;durP1;ratioP1;P2;durP2;ratioP2
57297;SDS011;43147;50.972;18.210;2023-02-01T00:01:55;4.10;;;1.80;;
57297;SDS011;43147;50.972;18.210;2023-02-01T00:04:21;5.60;;;2.00;;
57297;SDS011;43147;50.972;18.210;2023-02-01T00:06:47;3.20;;;1.10;;
57297;SDS011;43147;50.972;18.210;2023-02-01T00:09:13;7.80;;;2.60;;
57297;SDS011;43147;50.972;18.210;2023-02-01T00:11:39;4.30;;;1.80;;
57297;SDS011;43147;50.972;18.210;2023-02-01T00:14:05;5.40;;;1.50;;
57297;SDS011;43147;50.972;18.210;2023-02-01T00:16:33;7.00;;;1.80;;
57297;SDS011;43147;50.972;18.210;2023-02-01T00:19:00;13.80;;;2.00;;
57297;SDS011;43147;50.972;18.210;2023-02-01T00:21:28;4.70;;;1.50;;
57297;SDS011;43147;50.972;18.210;2023-02-01T00:23:54;4.80;;;1.50;;
57297;SDS011;43147;50.972;18.210;2023-02-01T00:26:22;8.60;;;1.40;;
57297;SDS011;43147;50.972;18.210;2023-02-01T00:28:56;5.10;;;1.80;;
57297;SDS011;43147;50.972;18.210;2023-02-01T00:31:21;8.00;;;1.80;;
57297;SDS011;43147;50.972;18.210;2023-02-01T00:33:47;4.20;;;1.80;;
57297;SDS011;43147;50.972;18.210;2023-02-01T00:36:13;10.50;;;2.40;;
57297;SDS011;43147;50.972;18.210;2023-02-01T00:38:39;10.90;;;2.40;;
57297;SDS011;43147;50.972;18.210;2023-02-01T00:41:06;9.60;;;1.60;;
57297;SDS011;43147;50.972;18.210;2023-02-01T00:43:52;6.80;;;1.90;;
57297;SDS011;43147;50.972;18.210;2023-02-01T00:46:18;12.50;;;2.70;;
57297;SDS011;43147;50.972;18.210;2023-02-01T00:48:44;9.90;;;2.00;;
57297;SDS011;43147;50.972;18.210;2023-02-01T00:51:11;9.10;;;2.00;;
57297;SDS011;43147;50.972;18.210;2023-02-01T00:53:39;9.10;;;1.70;;
57297;SDS011;43147;50.972;18.210;2023-02-01T00:56:05;4.40;;;1.50;;
57297;SDS011;43147;50.972;18.210;2023-02-01T00:58:32;4.80;;;1.20;;
57297;SDS011;43147;50.972;18.210;2023-02-01T01:01:06;3.20;;;1.50;;
57297;SDS011;43147;50.972;18.210;2023-02-01T01:03:40;4.00;;;1.90;;
57297;SDS011;43147;50.972;18.210;2023-02-01T01:06:13;8.30;;;1.90;;
57297;SDS011;43147;50.972;18.210;2023-02-01T01:08:40;4.70;;;1.80;;
57297;SDS011;43147;50.972;18.210;2023-02-01T01:11:10;11.80;;;1.60;;
57297;SDS011;43147;50.972;18.210;2023-02-01T01:13:37;12.50;;;2.70;;
57297;SDS011;43147;50.972;18.210;2023-02-01T01:16:04;4.60;;;1.90;;
57297;SDS011;43147;50.972;18.210;2023-02-01T01:18:30;9.00;;;2.00;;
57297;SDS011;43147;50.972;18.210;2023-02-01T01:20:56;7.70;;;1.50;;
57297;SDS011;43147;50.972;18.210;2023-02-01T01:23:23;9.00;;;1.40;;
57297;SDS011;43147;50.972;18.210;2023-02-01T01:25:49;8.00;;;1.70;;
57297;SDS011;43147;50.972;18.210;2023-02-01T01:28:14;4.70;;;1.70;;
57297;SDS011;43147;50.972;18.210;2023-02-01T01:30:40;3.60;;;1.20;;
57297;SDS011;43147;50.972;18.210;2023-02-01T01:33:06;10.30;;;1.40;;
57297;SDS011;43147;50.972;18.210;2023-02-01T01:35:31;2.80;;;1.30;;
57297;SDS011;43147;50.972;18.210;2023-02-01T01:37:57;3.20;;;1.30;;
57297;SDS011;43147;50.972;18.210;2023-02-01T01:40:24;12.90;;;1.40;;
57297;SDS011;43147;50.972;18.210;2023-02-01T01:42:51;9.20;;;2.70;;
57297;SDS011;43147;50.972;18.210;2023-02-01T01:45:24;4.30;;;1.60;;
57297;SDS011;43147;50.972;18.210;2023-02-01T01:47:55;5.10;;;1.50;;
57297;SDS011;43147;50.972;18.210;2023-02-01T01:50:32;5.60;;;1.70;;
57297;SDS011;43147;50.972;18.210;2023-02-01T01:53:02;10.70;;;2.00;;
57297;SDS011;43147;50.972;18.210;2023-02-01T01:55:31;2.60;;;0.80;;
57297;SDS011;43147;50.972;18.210;2023-02-01T01:58:19;7.60;;;2.30;;
57297;SDS011;43147;50.972;18.210;2023-02-01T02:00:45;6.10;;;1.40;;
57297;SDS011;43147;50.972;18.210;2023-02-01T02:03:18;12.90;;;1.60;;
57297;SDS011;43147;50.972;18.210;2023-02-01T02:06:02;9.90;;;1.50;;
57297;SDS011;43147;50.972;18.210;2023-02-01T02:08:31;11.20;;;1.60;;
57297;SDS011;43147;50.972;18.210;2023-02-01T02:10:56;6.80;;;1.80;;
57297;SDS011;43147;50.972;18.210;2023-02-01T02:13:38;11.60;;;1.40;;
57297;SDS011;43147;50.972;18.210;2023-02-01T02:24:21;5.20;;;1.30;;
57297;SDS011;43147;50.972;18.210;2023-02-01T02:27:16;11.10;;;2.20;;
57297;SDS011;43147;50.972;18.210;2023-02-01T02:48:50;5.60;;;2.00;;
57297;SDS011;43147;50.972;18.210;2023-02-01T02:51:20;7.70;;;2.20;;
57297;SDS011;43147;50.972;18.210;2023-02-01T02:54:31;9.80;;;1.50;;
57297;SDS011;43147;50.972;18.210;2023-02-01T02:57:18;2.60;;;1.30;;
57297;SDS011;43147;50.972;18.210;2023-02-01T03:00:06;9.40;;;1.80;;
57297;SDS011;43147;50.972;18.210;2023-02-01T03:02:54;6.70;;;1.30;;
57297;SDS011;43147;50.972;18.210;2023-02-01T03:05:41;3.70;;;1.30;;
57297;SDS011;43147;50.972;18.210;2023-02-01T03:08:16;6.00;;;1.50;;
57297;SDS011;43147;50.972;18.210;2023-02-01T03:13:27;2.20;;;1.10;;
57297;SDS011;43147;50.972;18.210;2023-02-01T03:16:17;8.00;;;2.00;;
57297;SDS011;43147;50.972;18.210;2023-02-01T03:21:42;11.20;;;2.00;;
57297;SDS011;43147;50.972;18.210;2023-02-01T03:27:07;7.10;;;2.00;;
57297;SDS011;43147;50.972;18.210;2023-02-01T03:29:46;3.90;;;1.40;;
57297;SDS011;43147;50.972;18.210;2023-02-01T03:32:14;4.50;;;1.60;;
57297;SDS011;43147;50.972;18.210;2023-02-01T03:34:40;2.80;;;1.10;;
57297;SDS011;43147;50.972;18.210;2023-02-01T03:37:10;3.90;;;1.50;;
57297;SDS011;43147;50.972;18.210;2023-02-01T03:39:48;7.50;;;2.00;;
57297;SDS011;43147;50.972;18.210;2023-02-01T03:42:27;12.20;;;2.10;;
57297;SDS011;43147;50.972;18.210;2023-02-01T03:48:04;10.80;;;2.80;;
57297;SDS011;43147;50.972;18.210;2023-02-01T03:50:31;4.70;;;1.60;;
57297;SDS011;43147;50.972;18.210;2023-02-01T03:53:02;7.70;;;1.70;;
57297;SDS011;43147;50.972;18.210;2023-02-01T03:55:30;19.00;;;2.10;;
57297;SDS011;43147;50.972;18.210;2023-02-01T03:57:58;11.60;;;2.70;;
57297;SDS011;43147;50.972;18.210;2023-02-01T04:00:33;6.40;;;2.20;;
57297;SDS011;43147;50.972;18.210;2023-02-01T04:02:58;7.70;;;2.30;;
57297;SDS011;43147;50.972;18.210;2023-02-01T04:05:24;8.30;;;2.20;;
57297;SDS011;43147;50.972;18.210;2023-02-01T04:07:50;14.60;;;2.90;;
57297;SDS011;43147;50.972;18.210;2023-02-01T04:10:15;12.30;;;2.20;;
57297;SDS011;43147;50.972;18.210;2023-02-01T04:13:00;12.10;;;2.90;;
57297;SDS011;43147;50.972;18.210;2023-02-01T04:15:25;23.00;;;2.80;;
57297;SDS011;43147;50.972;18.210;2023-02-01T04:17:51;12.00;;;3.00;;
57297;SDS011;43147;50.972;18.210;2023-02-01T04:20:17;19.20;;;3.20;;
57297;SDS011;43147;50.972;18.210;2023-02-01T04:22:43;17.80;;;2.80;;
57297;SDS011;43147;50.972;18.210;2023-02-01T04:25:10;9.60;;;1.90;;
57297;SDS011;43147;50.972;18.210;2023-02-01T04:27:36;9.40;;;2.00;;
57297;SDS011;43147;50.972;18.210;2023-02-01T04:30:03;12.50;;;2.40;;
57297;SDS011;43147;50.972;18.210;2023-02-01T04:32:29;15.10;;;3.30;;
57297;SDS011;43147;50.972;18.210;2023-02-01T04:34:55;12.10;;;2.70;;
57297;SDS011;43147;50.972;18.210;2023-02-01T04:37:20;16.20;;;3.20;;
57297;SDS011;43147;50.972;18.210;2023-02-01T04:39:46;7.50;;;2.60;;
57297;SDS011;43147;50.972;18.210;2023-02-01T04:42:11;16.00;;;3.40;;
57297;SDS011;43147;50.972;18.210;2023-02-01T04:44:38;13.50;;;2.90;;
57297;SDS011;43147;50.972;18.210;2023-02-01T04:47:07;7.20;;;1.90;;
57297;SDS011;43147;50.972;18.210;2023-02-01T04:49:32;10.00;;;2.40;;
57297;SDS011;43147;50.972;18.210;2023-02-01T04:51:59;7.80;;;2.30;;
57297;SDS011;43147;50.972;18.210;2023-02-01T04:54:24;10.80;;;3.00;;
57297;SDS011;43147;50.972;18.210;2023-02-01T04:56:50;10.60;;;1.60;;
57297;SDS011;43147;50.972;18.210;2023-02-01T04:59:16;9.20;;;3.10;;
57297;SDS011;43147;50.972;18.210;2023-02-01T05:01:41;13.80;;;2.80;;
57297;SDS011;43147;50.972;18.210;2023-02-01T05:04:07;14.40;;;2.60;;
57297;SDS011;43147;50.972;18.210;2023-02-01T05:06:32;12.90;;;2.90;;
57297;SDS011;43147;50.972;18.210;2023-02-01T05:08:58;12.20;;;3.60;;
57297;SDS011;43147;50.972;18.210;2023-02-01T05:11:23;13.40;;;2.50;;
57297;SDS011;43147;50.972;18.210;2023-02-01T05:14:08;13.00;;;2.80;;
57297;SDS011;43147;50.972;18.210;2023-02-01T05:16:33;15.40;;;3.70;;
57297;SDS011;43147;50.972;18.210;2023-02-01T05:18:59;25.20;;;4.30;;
57297;SDS011;43147;50.972;18.210;2023-02-01T05:21:25;10.20;;;3.20;;
57297;SDS011;43147;50.972;18.210;2023-02-01T05:23:50;14.10;;;5.00;;
57297;SDS011;43147;50.972;18.210;2023-02-01T05:26:34;14.20;;;5.30;;
57297;SDS011;43147;50.972;18.210;2023-02-01T05:29:00;11.30;;;3.50;;
57297;SDS011;43147;50.972;18.210;2023-02-01T05:31:26;22.50;;;6.40;;
57297;SDS011;43147;50.972;18.210;2023-02-01T05:33:52;25.60;;;6.90;;
57297;SDS011;43147;50.972;18.210;2023-02-01T05:36:17;54.60;;;11.10;;
57297;SDS011;43147;50.972;18.210;2023-02-01T05:38:43;49.10;;;11.50;;
57297;SDS011;43147;50.972;18.210;2023-02-01T05:41:08;9.90;;;2.90;;
57297;SDS011;43147;50.972;18.210;2023-02-01T05:43:34;25.80;;;4.40;;
57297;SDS011;43147;50.972;18.210;2023-02-01T05:46:00;16.10;;;4.80;;
57297;SDS011;43147;50.972;18.210;2023-02-01T05:48:25;10.00;;;2.90;;
57297;SDS011;43147;50.972;18.210;2023-02-01T05:50:51;11.30;;;3.20;;
57297;SDS011;43147;50.972;18.210;2023-02-01T05:53:16;15.00;;;2.60;;
57297;SDS011;43147;50.972;18.210;2023-02-01T05:55:42;11.90;;;3.60;;
57297;SDS011;43147;50.972;18.210;2023-02-01T05:58:07;8.80;;;2.50;;
57297;SDS011;43147;50.972;18.210;2023-02-01T06:00:33;15.90;;;2.80;;
57297;SDS011;43147;50.972;18.210;2023-02-01T06:02:59;14.30;;;3.00;;
57297;SDS011;43147;50.972;18.210;2023-02-01T06:05:24;17.20;;;3.40;;
57297;SDS011;43147;50.972;18.210;2023-02-01T06:07:50;8.50;;;2.30;;
57297;SDS011;43147;50.972;18.210;2023-02-01T06:10:18;15.40;;;2.90;;
57297;SDS011;43147;50.972;18.210;2023-02-01T06:12:44;16.00;;;3.70;;
57297;SDS011;43147;50.972;18.210;2023-02-01T06:15:10;19.60;;;3.40;;
57297;SDS011;43147;50.972;18.210;2023-02-01T06:17:37;18.90;;;3.30;;
57297;SDS011;43147;50.972;18.210;2023-02-01T06:20:03;14.50;;;3.00;;
57297;SDS011;43147;50.972;18.210;2023-02-01T06:22:32;15.90;;;3.20;;
57297;SDS011;43147;50.972;18.210;2023-02-01T06:24:58;4.30;;;1.90;;
57297;SDS011;43147;50.972;18.210;2023-02-01T06:27:24;10.90;;;3.10;;
57297;SDS011;43147;50.972;18.210;2023-02-01T06:29:50;17.80;;;3.40;;
57297;SDS011;43147;50.972;18.210;2023-02-01T06:32:16;18.60;;;3.30;;
57297;SDS011;43147;50.972;18.210;2023-02-01T06:34:43;12.70;;;2.80;;
57297;SDS011;43147;50.972;18.210;2023-02-01T06:37:08;7.40;;;2.40;;
57297;SDS011;43147;50.972;18.210;2023-02-01T06:39:36;10.50;;;3.90;;
57297;SDS011;43147;50.972;18.210;2023-02-01T06:42:02;7.00;;;2.80;;
57297;SDS011;43147;50.972;18.210;2023-02-01T06:44:28;14.90;;;3.90;;
57297;SDS011;43147;50.972;18.210;2023-02-01T06:46:53;12.30;;;3.10;;
57297;SDS011;43147;50.972;18.210;2023-02-01T06:49:20;16.00;;;3.30;;
57297;SDS011;43147;50.972;18.210;2023-02-01T06:51:46;13.60;;;2.90;;
57297;SDS011;43147;50.972;18.210;2023-02-01T06:54:11;23.00;;;3.80;;
57297;SDS011;43147;50.972;18.210;2023-02-01T06:56:38;27.00;;;4.00;;
57297;SDS011;43147;50.972;18.210;2023-02-01T06:59:04;9.20;;;3.20;;
57297;SDS011;43147;50.972;18.210;2023-02-01T07:01:30;15.50;;;3.40;;
57297;SDS011;43147;50.972;18.210;2023-02-01T07:03:56;13.30;;;3.50;;
57297;SDS011;43147;50.972;18.210;2023-02-01T07:06:22;18.60;;;3.80;;
57297;SDS011;43147;50.972;18.210;2023-02-01T07:08:50;11.10;;;2.90;;
57297;SDS011;43147;50.972;18.210;2023-02-01T07:11:16;12.10;;;3.40;;
57297;SDS011;43147;50.972;18.210;2023-02-01T07:13:43;20.80;;;3.60;;
57297;SDS011;43147;50.972;18.210;2023-02-01T07:16:10;11.00;;;3.80;;
57297;SDS011;43147;50.972;18.210;2023-02-01T07:18:38;12.90;;;3.00;;
57297;SDS011;43147;50.972;18.210;2023-02-01T07:21:04;18.90;;;4.20;;
57297;SDS011;43147;50.972;18.210;2023-02-01T07:23:29;14.10;;;4.10;;
57297;SDS011;43147;50.972;18.210;2023-02-01T07:25:59;10.30;;;3.30;;
57297;SDS011;43147;50.972;18.210;2023-02-01T07:28:26;17.90;;;3.50;;
57297;SDS011;43147;50.972;18.210;2023-02-01T07:30:54;10.20;;;3.40;;
57297;SDS011;43147;50.972;18.210;2023-02-01T07:33:20;13.20;;;3.50;;
57297;SDS011;43147;50.972;18.210;2023-02-01T07:35:47;19.30;;;3.30;;
57297;SDS011;43147;50.972;18.210;2023-02-01T07:38:14;12.60;;;3.30;;
57297;SDS011;43147;50.972;18.210;2023-02-01T07:40:40;16.40;;;3.40;;
57297;SDS011;43147;50.972;18.210;2023-02-01T07:43:06;12.70;;;2.90;;
57297;SDS011;43147;50.972;18.210;2023-02-01T07:45:33;18.40;;;3.40;;
57297;SDS011;43147;50.972;18.210;2023-02-01T07:48:00;11.00;;;3.40;;
57297;SDS011;43147;50.972;18.210;2023-02-01T07:50:26;16.60;;;3.80;;
57297;SDS011;43147;50.972;18.210;2023-02-01T07:52:51;11.20;;;3.00;;
57297;SDS011;43147;50.972;18.210;2023-02-01T07:55:19;14.00;;;3.90;;
57297;SDS011;43147;50.972;18.210;2023-02-01T07:57:45;9.60;;;3.10;;
57297;SDS011;43147;50.972;18.210;2023-02-01T08:00:11;11.60;;;3.90;;
57297;SDS011;43147;50.972;18.210;2023-02-01T08:05:24;15.70;;;4.10;;
57297;SDS011;43147;50.972;18.210;2023-02-01T08:07:50;8.80;;;3.40;;
57297;SDS011;43147;50.972;18.210;2023-02-01T08:10:16;3.90;;;2.00;;
57297;SDS011;43147;50.972;18.210;2023-02-01T08:12:43;17.70;;;3.30;;
57297;SDS011;43147;50.972;18.210;2023-02-01T08:15:13;17.10;;;3.50;;
57297;SDS011;43147;50.972;18.210;2023-02-01T08:17:48;18.40;;;3.40;;
57297;SDS011;43147;50.972;18.210;2023-02-01T08:20:14;15.00;;;3.50;;
57297;SDS011;43147;50.972;18.210;2023-02-01T08:22:40;9.60;;;3.00;;
57297;SDS011;43147;50.972;18.210;2023-02-01T08:25:06;15.80;;;4.20;;
57297;SDS011;43147;50.972;18.210;2023-02-01T08:27:32;17.20;;;4.50;;
57297;SDS011;43147;50.972;18.210;2023-02-01T08:29:58;14.40;;;3.60;;
57297;SDS011;43147;50.972;18.210;2023-02-01T08:32:25;14.50;;;3.90;;
57297;SDS011;43147;50.972;18.210;2023-02-01T08:34:51;15.60;;;4.70;;
57297;SDS011;43147;50.972;18.210;2023-02-01T08:37:16;16.10;;;4.80;;
57297;SDS011;43147;50.972;18.210;2023-02-01T08:39:44;12.00;;;3.00;;
57297;SDS011;43147;50.972;18.210;2023-02-01T08:42:10;18.50;;;4.10;;
57297;SDS011;43147;50.972;18.210;2023-02-01T08:47:21;17.60;;;5.10;;
57297;SDS011;43147;50.972;18.210;2023-02-01T08:49:49;20.80;;;5.20;;
57297;SDS011;43147;50.972;18.210;2023-02-01T08:52:18;15.50;;;3.50;;
57297;SDS011;43147;50.972;18.210;2023-02-01T08:54:44;16.00;;;5.20;;
57297;SDS011;43147;50.972;18.210;2023-02-01T08:57:09;14.10;;;3.80;;
57297;SDS011;43147;50.972;18.210;2023-02-01T08:59:35;11.70;;;3.60;;
57297;SDS011;43147;50.972;18.210;2023-02-01T09:02:00;16.20;;;4.20;;
57297;SDS011;43147;50.972;18.210;2023-02-01T09:04:26;17.10;;;4.60;;
57297;SDS011;43147;50.972;18.210;2023-02-01T09:06:52;15.80;;;4.00;;
57297;SDS011;43147;50.972;18.210;2023-02-01T09:09:21;12.60;;;4.50;;
57297;SDS011;43147;50.972;18.210;2023-02-01T09:11:47;15.70;;;3.40;;
57297;SDS011;43147;50.972;18.210;2023-02-01T09:14:14;8.80;;;3.60;;
57297;SDS011;43147;50.972;18.210;2023-02-01T09:16:40;14.10;;;3.50;;
57297;SDS011;43147;50.972;18.210;2023-02-01T09:19:05;10.60;;;3.10;;
57297;SDS011;43147;50.972;18.210;2023-02-01T09:21:31;10.00;;;2.90;;
57297;SDS011;43147;50.972;18.210;2023-02-01T09:23:58;8.00;;;3.50;;
57297;SDS011;43147;50.972;18.210;2023-02-01T09:26:24;15.20;;;4.50;;
57297;SDS011;43147;50.972;18.210;2023-02-01T09:28:51;13.50;;;4.00;;
57297;SDS011;43147;50.972;18.210;2023-02-01T09:31:16;13.90;;;4.20;;
57297;SDS011;43147;50.972;18.210;2023-02-01T09:33:43;14.70;;;4.20;;
57297;SDS011;43147;50.972;18.210;2023-02-01T09:36:08;21.10;;;4.80;;
57297;SDS011;43147;50.972;18.210;2023-02-01T09:38:34;11.30;;;3.60;;
57297;SDS011;43147;50.972;18.210;2023-02-01T09:41:00;11.60;;;3.30;;
57297;SDS011;43147;50.972;18.210;2023-02-01T09:46:15;13.40;;;3.20;;
57297;SDS011;43147;50.972;18.210;2023-02-01T09:48:46;11.60;;;3.30;;
57297;SDS011;43147;50.972;18.210;2023-02-01T09:51:14;13.00;;;3.80;;
57297;SDS011;43147;50.972;18.210;2023-02-01T09:53:43;9.90;;;3.50;;
57297;SDS011;43147;50.972;18.210;2023-02-01T09:56:15;17.40;;;4.00;;
57297;SDS011;43147;50.972;18.210;2023-02-01T09:58:59;9.80;;;3.30;;
57297;SDS011;43147;50.972;18.210;2023-02-01T10:01:30;17.50;;;4.60;;
57297;SDS011;43147;50.972;18.210;2023-02-01T10:03:58;15.60;;;3.70;;
57297;SDS011;43147;50.972;18.210;2023-02-01T10:17:24;12.90;;;4.00;;
57297;SDS011;43147;50.972;18.210;2023-02-01T10:20:18;19.70;;;4.80;;
57297;SDS011;43147;50.972;18.210;2023-02-01T10:25:53;14.00;;;3.20;;
57297;SDS011;43147;50.972;18.210;2023-02-01T10:28:20;13.30;;;3.30;;
57297;SDS011;43147;50.972;18.210;2023-02-01T10:30:47;13.60;;;3.30;;
57297;SDS011;43147;50.972;18.210;2023-02-01T10:35:54;6.20;;;3.20;;
57297;SDS011;43147;50.972;18.210;2023-02-01T10:38:25;8.10;;;3.30;;
57297;SDS011;43147;50.972;18.210;2023-02-01T10:41:11;10.50;;;3.70;;
57297;SDS011;43147;50.972;18.210;2023-02-01T10:43:42;9.20;;;3.00;;
57297;SDS011;43147;50.972;18.210;2023-02-01T10:46:08;18.60;;;4.90;;
57297;SDS011;43147;50.972;18.210;2023-02-01T10:48:34;15.00;;;4.40;;
57297;SDS011;43147;50.972;18.210;2023-02-01T10:51:02;14.10;;;4.90;;
57297;SDS011;43147;50.972;18.210;2023-02-01T10:53:42;15.40;;;4.40;;
57297;SDS011;43147;50.972;18.210;2023-02-01T10:56:12;17.80;;;4.90;;
57297;SDS011;43147;50.972;18.210;2023-02-01T10:58:45;9.00;;;4.20;;
57297;SDS011;43147;50.972;18.210;2023-02-01T11:01:21;18.70;;;5.60;;
57297;SDS011;43147;50.972;18.210;2023-02-01T11:06:24;12.00;;;5.50;;
57297;SDS011;43147;50.972;18.210;2023-02-01T11:08:51;25.90;;;12.20;;
57297;SDS011;43147;50.972;18.210;2023-02-01T11:11:19;19.80;;;9.80;;
57297;SDS011;43147;50.972;18.210;2023-02-01T11:13:50;23.10;;;7.50;;
57297;SDS011;43147;50.972;18.210;2023-02-01T11:16:34;12.50;;;4.10;;
57297;SDS011;43147;50.972;18.210;2023-02-01T11:19:02;11.90;;;5.50;;
57297;SDS011;43147;50.972;18.210;2023-02-01T11:21:27;13.20;;;5.50;;
57297;SDS011;43147;50.972;18.210;2023-02-01T11:23:53;9.50;;;3.80;;
57297;SDS011;43147;50.972;18.210;2023-02-01T11:26:24;9.80;;;3.80;;
57297;SDS011;43147;50.972;18.210;2023-02-01T11:28:52;14.20;;;6.20;;
57297;SDS011;43147;50.972;18.210;2023-02-01T11:31:19;10.30;;;5.60;;
57297;SDS011;43147;50.972;18.210;2023-02-01T11:33:48;9.20;;;3.50;;
57297;SDS011;43147;50.972;18.210;2023-02-01T11:36:18;15.40;;;4.60;;
57297;SDS011;43147;50.972;18.210;2023-02-01T11:38:54;10.30;;;4.30;;
57297;SDS011;43147;50.972;18.210;2023-02-01T11:41:43;9.80;;;4.40;;
57297;SDS011;43147;50.972;18.210;2023-02-01T11:44:39;9.20;;;3.70;;
57297;SDS011;43147;50.972;18.210;2023-02-01T11:47:26;6.90;;;2.80;;
57297;SDS011;43147;50.972;18.210;2023-02-01T11:49:54;5.20;;;2.70;;
57297;SDS011;43147;50.972;18.210;2023-02-01T11:54:51;7.90;;;3.90;;
57297;SDS011;43147;50.972;18.210;2023-02-01T11:57:42;7.50;;;3.00;;
57297;SDS011;43147;50.972;18.210;2023-02-01T12:14:52;10.80;;;4.60;;
57297;SDS011;43147;50.972;18.210;2023-02-01T12:36:31;9.00;;;4.10;;
57297;SDS011;43147;50.972;18.210;2023-02-01T12:41:45;9.70;;;4.40;;
57297;SDS011;43147;50.972;18.210;2023-02-01T12:47:12;9.00;;;3.30;;
57297;SDS011;43147;50.972;18.210;2023-02-01T12:53:06;10.10;;;4.60;;
57297;SDS011;43147;50.972;18.210;2023-02-01T12:55:44;7.80;;;4.10;;
57297;SDS011;43147;50.972;18.210;2023-02-01T12:58:17;12.90;;;6.30;;
57297;SDS011;43147;50.972;18.210;2023-02-01T13:00:46;10.50;;;5.40;;
57297;SDS011;43147;50.972;18.210;2023-02-01T13:06:07;9.40;;;4.60;;
57297;SDS011;43147;50.972;18.210;2023-02-01T13:17:01;9.50;;;4.50;;
57297;SDS011;43147;50.972;18.210;2023-02-01T13:22:19;10.70;;;6.10;;
57297;SDS011;43147;50.972;18.210;2023-02-01T13:25:12;14.00;;;5.90;;
57297;SDS011;43147;50.972;18.210;2023-02-01T13:27:39;11.70;;;6.10;;
57297;SDS011;43147;50.972;18.210;2023-02-01T13:38:29;15.10;;;6.20;;
57297;SDS011;43147;50.972;18.210;2023-02-01T13:43:40;11.60;;;6.00;;
57297;SDS011;43147;50.972;18.210;2023-02-01T13:46:10;12.00;;;4.90;;
57297;SDS011;43147;50.972;18.210;2023-02-01T13:48:46;9.00;;;4.50;;
57297;SDS011;43147;50.972;18.210;2023-02-01T13:54:27;19.40;;;6.00;;
57297;SDS011;43147;50.972;18.210;2023-02-01T13:56:55;6.30;;;4.00;;
57297;SDS011;43147;50.972;18.210;2023-02-01T14:05:12;12.00;;;5.60;;
57297;SDS011;43147;50.972;18.210;2023-02-01T14:23:42;13.90;;;6.00;;
57297;SDS011;43147;50.972;18.210;2023-02-01T14:26:18;7.50;;;4.40;;
57297;SDS011;43147;50.972;18.210;2023-02-01T14:29:03;13.70;;;4.50;;
57297;SDS011;43147;50.972;18.210;2023-02-01T14:36:58;5.40;;;3.70;;
57297;SDS011;43147;50.972;18.210;2023-02-01T14:39:27;11.60;;;5.60;;
57297;SDS011;43147;50.972;18.210;2023-02-01T14:41:55;18.10;;;5.00;;
57297;SDS011;43147;50.972;18.210;2023-02-01T14:44:25;8.00;;;4.50;;
57297;SDS011;43147;50.972;18.210;2023-02-01T14:52:35;8.20;;;3.60;;
57297;SDS011;43147;50.972;18.210;2023-02-01T15:01:20;9.40;;;3.60;;
57297;SDS011;43147;50.972;18.210;2023-02-01T15:06:49;10.40;;;3.80;;
57297;SDS011;43147;50.972;18.210;2023-02-01T15:09:27;7.00;;;3.20;;
57297;SDS011;43147;50.972;18.210;2023-02-01T15:11:55;11.20;;;4.60;;
57297;SDS011;43147;50.972;18.210;2023-02-01T15:14:21;14.70;;;5.50;;
57297;SDS011;43147;50.972;18.210;2023-02-01T15:16:46;16.40;;;6.40;;
57297;SDS011;43147;50.972;18.210;2023-02-01T15:19:19;19.20;;;4.30;;
57297;SDS011;43147;50.972;18.210;2023-02-01T15:21:50;9.50;;;4.20;;
57297;SDS011;43147;50.972;18.210;2023-02-01T15:24:21;7.50;;;3.80;;
57297;SDS011;43147;50.972;18.210;2023-02-01T15:26:50;7.10;;;3.90;;
57297;SDS011;43147;50.972;18.210;2023-02-01T15:29:17;7.30;;;3.70;;
57297;SDS011;43147;50.972;18.210;2023-02-01T15:31:45;9.40;;;4.80;;
57297;SDS011;43147;50.972;18.210;2023-02-01T15:34:13;9.00;;;5.10;;
57297;SDS011;43147;50.972;18.210;2023-02-01T15:36:39;8.00;;;4.60;;
57297;SDS011;43147;50.972;18.210;2023-02-01T15:39:16;11.60;;;4.30;;
57297;SDS011;43147;50.972;18.210;2023-02-01T15:41:51;12.40;;;4.60;;
57297;SDS011;43147;50.972;18.210;2023-02-01T15:46:53;12.20;;;4.40;;
57297;SDS011;43147;50.972;18.210;2023-02-01T15:51:54;6.70;;;3.90;;
57297;SDS011;43147;50.972;18.210;2023-02-01T15:57:30;8.40;;;4.60;;
57297;SDS011;43147;50.972;18.210;2023-02-01T16:00:00;5.20;;;2.60;;
57297;SDS011;43147;50.972;18.210;2023-02-01T16:05:04;7.30;;;4.60;;
57297;SDS011;43147;50.972;18.210;2023-02-01T16:07:34;16.00;;;5.70;;
57297;SDS011;43147;50.972;18.210;2023-02-01T16:10:00;8.90;;;5.00;;
57297;SDS011;43147;50.972;18.210;2023-02-01T16:12:45;8.70;;;4.30;;
57297;SDS011;43147;50.972;18.210;2023-02-01T16:15:11;13.60;;;5.60;;
57297;SDS011;43147;50.972;18.210;2023-02-01T16:17:37;10.80;;;4.70;;
57297;SDS011;43147;50.972;18.210;2023-02-01T16:20:03;13.80;;;4.80;;
57297;SDS011;43147;50.972;18.210;2023-02-01T16:22:29;10.70;;;5.80;;
57297;SDS011;43147;50.972;18.210;2023-02-01T16:24:55;16.70;;;6.70;;
57297;SDS011;43147;50.972;18.210;2023-02-01T16:27:22;18.70;;;7.60;;
57297;SDS011;43147;50.972;18.210;2023-02-01T16:29:48;21.10;;;8.00;;
57297;SDS011;43147;50.972;18.210;2023-02-01T16:32:18;17.90;;;11.60;;
57297;SDS011;43147;50.972;18.210;2023-02-01T16:34:45;20.60;;;10.00;;
57297;SDS011;43147;50.972;18.210;2023-02-01T16:37:12;18.60;;;8.20;;
57297;SDS011;43147;50.972;18.210;2023-02-01T16:39:40;25.00;;;10.90;;
57297;SDS011;43147;50.972;18.210;2023-02-01T16:42:12;28.50;;;9.30;;
57297;SDS011;43147;50.972;18.210;2023-02-01T16:44:38;15.20;;;7.00;;
57297;SDS011;43147;50.972;18.210;2023-02-01T16:47:12;16.70;;;9.20;;
57297;SDS011;43147;50.972;18.210;2023-02-01T16:49:42;32.50;;;13.90;;
57297;SDS011;43147;50.972;18.210;2023-02-01T16:52:11;56.30;;;22.30;;
57297;SDS011;43147;50.972;18.210;2023-02-01T16:54:40;49.80;;;18.70;;
57297;SDS011;43147;50.972;18.210;2023-02-01T16:57:07;35.80;;;14.30;;
57297;SDS011;43147;50.972;18.210;2023-02-01T16:59:40;30.80;;;11.40;;
57297;SDS011;43147;50.972;18.210;2023-02-01T17:02:09;42.70;;;16.20;;
57297;SDS011;43147;50.972;18.210;2023-02-01T17:04:37;37.00;;;14.60;;
57297;SDS011;43147;50.972;18.210;2023-02-01T17:07:03;31.30;;;14.20;;
57297;SDS011;43147;50.972;18.210;2023-02-01T17:09:36;18.10;;;8.30;;
57297;SDS011;43147;50.972;18.210;2023-02-01T17:12:02;37.20;;;10.20;;
57297;SDS011;43147;50.972;18.210;2023-02-01T17:14:30;31.60;;;9.00;;
57297;SDS011;43147;50.972;18.210;2023-02-01T17:16:57;30.50;;;9.50;;
57297;SDS011;43147;50.972;18.210;2023-02-01T17:19:23;21.60;;;8.40;;
57297;SDS011;43147;50.972;18.210;2023-02-01T17:21:50;16.40;;;7.70;;
57297;SDS011;43147;50.972;18.210;2023-02-01T17:24:20;20.30;;;7.80;;
57297;SDS011;43147;50.972;18.210;2023-02-01T17:26:47;21.90;;;8.20;;
57297;SDS011;43147;50.972;18.210;2023-02-01T17:29:15;17.30;;;6.60;;
57297;SDS011;43147;50.972;18.210;2023-02-01T17:31:42;13.60;;;5.00;;
57297;SDS011;43147;50.972;18.210;2023-02-01T17:34:10;12.30;;;5.80;;
57297;SDS011;43147;50.972;18.210;2023-02-01T17:36:36;14.30;;;5.30;;
57297;SDS011;43147;50.972;18.210;2023-02-01T17:39:04;11.40;;;4.90;;
57297;SDS011;43147;50.972;18.210;2023-02-01T17:41:30;9.20;;;4.60;;
57297;SDS011;43147;50.972;18.210;2023-02-01T17:43:56;8.50;;;4.20;;
57297;SDS011;43147;50.972;18.210;2023-02-01T17:46:21;11.20;;;5.40;;
57297;SDS011;43147;50.972;18.210;2023-02-01T17:48:51;9.40;;;5.20;;
57297;SDS011;43147;50.972;18.210;2023-02-01T17:51:29;12.60;;;6.50;;